createdAt,value
2022-08-01T00:00:23.128Z,0.28
2022-08-01T00:02:24.756Z,0.75
2022-08-01T00:04:26.382Z,0.00
2022-08-01T00:06:28.274Z,0.75
2022-08-01T00:08:29.822Z,0.00
2022-08-01T00:10:31.481Z,0.52
2022-08-01T00:12:33.324Z,0.10
2022-08-01T00:14:34.954Z,0.60
2022-08-01T00:16:37.086Z,0.10
2022-08-01T00:18:38.714Z,0.38
2022-08-01T00:20:40.337Z,0.13
2022-08-01T00:22:42.410Z,0.00
2022-08-01T00:24:44.048Z,0.20
2022-08-01T00:26:45.608Z,0.30
2022-08-01T00:28:47.317Z,0.00
2022-08-01T00:30:48.931Z,0.15
2022-08-01T00:32:50.476Z,0.30
2022-08-01T00:34:52.389Z,0.20
2022-08-01T00:36:54.036Z,0.10
2022-08-01T00:38:55.906Z,0.65
2022-08-01T00:40:57.544Z,0.82
2022-08-01T00:42:59.162Z,0.20
2022-08-01T00:45:00.784Z,0.00
2022-08-01T00:47:02.749Z,0.35
2022-08-01T00:49:04.501Z,2.20
2022-08-01T00:51:12.506Z,2.05
2022-08-01T00:53:18.969Z,0.52
2022-08-01T00:55:21.376Z,0.20
2022-08-01T00:58:01.737Z,0.08
2022-08-01T00:59:44.534Z,0.05
2022-08-01T01:01:46.622Z,0.10
2022-08-01T01:03:59.071Z,0.00
2022-08-01T01:06:13.458Z,0.25
2022-08-01T01:08:19.813Z,0.98
2022-08-01T01:10:47.862Z,0.10
2022-08-01T01:13:12.686Z,4.90
2022-08-01T01:15:19.333Z,0.22
2022-08-01T01:17:49.434Z,0.45
2022-08-01T01:19:52.701Z,0.20
2022-08-01T01:22:20.405Z,0.20
2022-08-01T01:24:46.834Z,0.20
2022-08-01T01:26:54.416Z,0.10
2022-08-01T01:29:06.545Z,0.20
2022-08-01T01:31:10.963Z,0.22
2022-08-01T01:33:13.590Z,0.00
2022-08-01T01:35:18.850Z,0.10
2022-08-01T01:37:23.217Z,0.20
2022-08-01T01:39:26.966Z,0.85
2022-08-01T01:41:29.273Z,0.08
2022-08-01T01:43:33.359Z,0.00
2022-08-01T01:45:35.550Z,0.95
2022-08-01T01:47:38.236Z,0.73
2022-08-01T01:49:41.135Z,0.08
2022-08-01T01:51:43.526Z,1.00
2022-08-01T01:54:03.299Z,0.45
2022-08-01T01:56:05.179Z,0.10
2022-08-01T01:58:07.718Z,0.30
2022-08-01T02:00:12.114Z,0.08
2022-08-01T02:02:15.916Z,0.10
2022-08-01T02:04:18.059Z,0.10
2022-08-01T02:06:19.647Z,0.00
2022-08-01T02:08:21.477Z,0.00
2022-08-01T02:10:28.592Z,0.10
2022-08-01T02:12:34.711Z,0.22
2022-08-01T02:14:36.897Z,4.75
2022-08-01T02:16:41.122Z,0.00
2022-08-01T02:18:42.955Z,0.30
2022-08-01T02:20:44.730Z,0.40
2022-08-01T02:23:00.940Z,0.10
2022-08-01T02:25:07.446Z,0.17
2022-08-01T02:27:11.709Z,0.00
2022-08-01T02:29:17.686Z,0.35
2022-08-01T02:31:22.718Z,0.80
2022-08-01T02:33:26.169Z,0.28
2022-08-01T02:35:29.650Z,0.05
2022-08-01T02:37:34.974Z,0.10
2022-08-01T02:39:37.811Z,0.20
2022-08-01T02:41:44.425Z,0.32
2022-08-01T02:43:53.078Z,0.10
2022-08-01T02:45:59.424Z,0.63
2022-08-01T02:48:06.325Z,0.20
2022-08-01T02:50:09.472Z,0.25
2022-08-01T02:52:13.844Z,0.10
2022-08-01T02:54:16.298Z,0.20
2022-08-01T02:56:19.155Z,0.65
2022-08-01T02:58:21.320Z,0.20
2022-08-01T03:02:32.867Z,0.43
2022-08-01T03:04:35.837Z,4.32
2022-08-01T03:06:38.609Z,0.57
2022-08-01T03:08:40.818Z,0.68
2022-08-01T03:10:44.197Z,0.95
2022-08-01T03:12:46.943Z,0.30
2022-08-01T03:14:52.531Z,0.35
2022-08-01T03:16:56.128Z,0.22
2022-08-01T03:18:58.098Z,0.13
2022-08-01T03:21:00.542Z,0.30
2022-08-01T03:23:09.634Z,0.10
2022-08-01T03:25:12.950Z,0.20
2022-08-01T03:27:15.575Z,0.65
2022-08-01T03:29:18.744Z,0.30
2022-08-01T03:31:20.417Z,1.45
2022-08-01T03:33:22.019Z,0.17
2022-08-01T03:35:27.669Z,0.47
2022-08-01T03:37:49.552Z,0.10
2022-08-01T03:40:06.157Z,0.32
2022-08-01T03:42:11.846Z,0.08
2022-08-01T03:44:17.727Z,2.08
2022-08-01T03:46:22.490Z,0.63
2022-08-01T03:48:30.233Z,0.65
2022-08-01T03:50:34.909Z,0.10
2022-08-01T03:52:39.189Z,0.30
2022-08-01T03:54:47.847Z,0.43
2022-08-01T03:56:51.207Z,1.23
2022-08-01T03:58:52.971Z,1.00
2022-08-01T04:00:55.121Z,1.23
2022-08-01T04:02:57.031Z,5.15
2022-08-01T04:05:00.229Z,1.13
2022-08-01T04:07:07.405Z,3.15
2022-08-01T04:09:13.355Z,1.27
2022-08-01T04:11:15.469Z,0.77
2022-08-01T04:13:17.062Z,1.98
2022-08-01T04:15:18.848Z,3.03
2022-08-01T04:17:20.519Z,0.82
2022-08-01T04:19:22.142Z,1.30
2022-08-01T04:21:28.604Z,6.55
2022-08-01T04:23:32.869Z,1.27
2022-08-01T04:25:35.450Z,0.20
2022-08-01T04:27:48.416Z,0.85
2022-08-01T04:29:54.140Z,0.95
2022-08-01T04:31:56.965Z,0.15
2022-08-01T04:33:59.336Z,0.85
2022-08-01T04:36:04.819Z,0.10
2022-08-01T04:38:07.388Z,0.63
2022-08-01T04:40:09.750Z,0.70
2022-08-01T04:42:12.300Z,0.20
2022-08-01T04:44:15.004Z,2.67
2022-08-01T04:46:17.138Z,2.67
2022-08-01T04:48:22.943Z,0.80
2022-08-01T04:50:25.503Z,1.95
2022-08-01T04:52:34.383Z,0.30
2022-08-01T04:54:39.948Z,0.28
2022-08-01T04:56:42.618Z,0.28
2022-08-01T04:58:44.897Z,0.10
2022-08-01T05:00:47.702Z,0.25
2022-08-01T05:02:49.489Z,0.10
2022-08-01T05:04:52.922Z,0.35
2022-08-01T05:06:54.511Z,2.42
2022-08-01T05:08:56.091Z,1.15
2022-08-01T05:10:57.709Z,0.38
2022-08-01T05:12:59.349Z,1.67
2022-08-01T05:15:00.997Z,0.55
2022-08-01T05:17:04.937Z,1.00
2022-08-01T05:19:06.628Z,0.45
2022-08-01T05:21:08.439Z,0.57
2022-08-01T05:23:10.094Z,5.40
2022-08-01T05:25:13.364Z,0.82
2022-08-01T05:27:20.957Z,0.35
2022-08-01T05:29:23.276Z,8.68
2022-08-01T05:31:24.876Z,0.20
2022-08-01T05:33:26.440Z,2.92
2022-08-01T05:35:48.212Z,14.15
2022-08-01T05:37:49.561Z,0.20
2022-08-01T05:39:51.115Z,0.20
2022-08-01T05:41:52.706Z,0.80
2022-08-01T05:43:54.353Z,0.82
2022-08-01T05:45:55.994Z,0.10
2022-08-01T05:47:57.607Z,0.55
2022-08-01T05:49:59.646Z,0.40
2022-08-01T05:52:03.282Z,0.30
2022-08-01T05:54:05.328Z,0.32
2022-08-01T05:56:06.888Z,1.42
2022-08-01T05:58:08.509Z,0.40
2022-08-01T06:00:15.641Z,0.35
2022-08-01T06:02:17.987Z,0.57
2022-08-01T06:04:19.678Z,0.88
2022-08-01T06:06:25.470Z,0.20
2022-08-01T06:08:27.725Z,0.93
2022-08-01T06:10:29.307Z,0.52
2022-08-01T06:12:35.741Z,0.65
2022-08-01T06:14:37.481Z,3.30
2022-08-01T06:16:39.035Z,0.93
2022-08-01T06:18:40.634Z,0.70
2022-08-01T06:20:42.725Z,1.10
2022-08-01T06:22:44.314Z,0.05
2022-08-01T06:24:53.966Z,0.55
2022-08-01T06:26:55.527Z,0.40
2022-08-01T06:28:57.112Z,0.38
2022-08-01T06:31:00.171Z,0.40
2022-08-01T06:33:01.868Z,0.10
2022-08-01T06:35:04.207Z,0.40
2022-08-01T06:37:06.917Z,0.30
2022-08-01T06:39:09.347Z,0.35
2022-08-01T06:41:10.891Z,0.57
2022-08-01T06:43:12.843Z,0.43
2022-08-01T06:45:15.333Z,0.17
2022-08-01T06:47:16.869Z,0.38
2022-08-01T06:49:18.503Z,0.00
2022-08-01T06:51:21.776Z,0.32
2022-08-01T06:53:25.778Z,0.13
2022-08-01T06:55:27.352Z,0.20
2022-08-01T06:57:29.088Z,0.10
2022-08-01T06:59:30.626Z,0.68
2022-08-01T07:01:34.993Z,0.13
2022-08-01T07:03:52.718Z,0.20
2022-08-01T07:05:56.403Z,0.00
2022-08-01T07:07:58.138Z,0.75
2022-08-01T07:09:59.695Z,0.22
2022-08-01T07:12:01.423Z,1.00
2022-08-01T07:14:04.173Z,0.43
2022-08-01T07:16:05.833Z,0.93
2022-08-01T07:18:07.377Z,0.00
2022-08-01T07:20:10.732Z,0.00
2022-08-01T07:22:12.363Z,1.35
2022-08-01T07:24:24.925Z,0.00
2022-08-01T07:26:28.613Z,0.00
2022-08-01T07:28:30.606Z,0.32
2022-08-01T07:30:32.258Z,0.10
2022-08-01T07:32:34.814Z,0.10
2022-08-01T07:34:36.497Z,0.00
2022-08-01T07:36:38.102Z,0.10
2022-08-01T07:38:39.677Z,0.00
2022-08-01T07:40:41.254Z,0.17
2022-08-01T07:42:44.485Z,0.08
2022-08-01T07:44:46.029Z,1.38
2022-08-01T07:46:47.596Z,0.00
2022-08-01T07:48:49.189Z,1.33
2022-08-01T07:50:51.602Z,0.00
2022-08-01T07:52:53.143Z,0.60
2022-08-01T07:54:55.925Z,0.38
2022-08-01T07:56:57.564Z,2.50
2022-08-01T07:58:59.599Z,0.30
2022-08-01T08:01:01.150Z,0.35
2022-08-01T08:03:02.826Z,0.00
2022-08-01T08:05:05.840Z,0.00
2022-08-01T08:07:08.466Z,0.13
2022-08-01T08:09:12.219Z,0.00
2022-08-01T08:11:13.813Z,2.28
2022-08-01T08:13:15.632Z,0.10
2022-08-01T08:15:17.379Z,0.00
2022-08-01T08:17:19.043Z,0.17
2022-08-01T08:19:20.675Z,0.85
2022-08-01T08:21:40.022Z,0.90
2022-08-01T08:24:00.189Z,0.00
2022-08-01T08:26:01.878Z,3.20
2022-08-01T08:28:03.486Z,0.00
2022-08-01T08:30:08.781Z,0.00
2022-08-01T08:32:11.120Z,0.47
2022-08-01T08:34:13.202Z,0.00
2022-08-01T08:36:17.788Z,0.28
2022-08-01T08:38:19.379Z,0.20
2022-08-01T08:40:31.334Z,4.38
2022-08-01T08:42:33.203Z,4.80
2022-08-01T08:44:34.981Z,12.52
2022-08-01T08:46:42.190Z,4.97
2022-08-01T08:48:43.920Z,4.43
2022-08-01T08:50:46.858Z,12.23
2022-08-01T08:52:49.270Z,4.35
2022-08-01T08:54:52.161Z,5.60
2022-08-01T08:56:55.766Z,4.90
2022-08-01T08:58:58.366Z,5.80
2022-08-01T09:01:00.242Z,7.55
2022-08-01T09:03:01.900Z,6.60
2022-08-01T09:05:03.702Z,5.85
2022-08-01T09:07:06.766Z,7.13
2022-08-01T09:09:09.235Z,5.05
2022-08-01T09:11:12.409Z,6.78
2022-08-01T09:13:16.350Z,8.02
2022-08-01T09:15:17.918Z,5.72
2022-08-01T09:17:22.535Z,5.63
2022-08-01T09:19:40.105Z,6.47
2022-08-01T09:21:59.029Z,9.18
2022-08-01T09:24:04.303Z,7.10
2022-08-01T09:26:06.787Z,7.50
2022-08-01T09:28:10.178Z,7.22
2022-08-01T09:30:14.347Z,6.05
2022-08-01T09:32:21.930Z,6.75
2022-08-01T09:34:32.151Z,6.50
2022-08-01T09:36:59.430Z,7.93
2022-08-01T09:39:13.437Z,9.52
2022-08-01T09:41:15.166Z,6.82
2022-08-01T09:43:17.407Z,6.20
2022-08-01T09:45:41.916Z,8.27
2022-08-01T09:47:47.142Z,6.78
2022-08-01T09:50:01.631Z,9.40
2022-08-01T09:52:21.436Z,5.38
2022-08-01T09:54:32.671Z,5.28
2022-08-01T09:56:39.343Z,4.07
2022-08-01T09:58:58.310Z,7.65
2022-08-01T10:01:06.033Z,4.93
2022-08-01T10:03:28.389Z,3.65
2022-08-01T10:05:36.861Z,6.82
2022-08-01T10:08:02.447Z,4.47
2022-08-01T10:10:15.156Z,7.28
2022-08-01T10:12:19.584Z,5.28
2022-08-01T10:14:21.564Z,2.65
2022-08-01T10:16:23.482Z,7.53
2022-08-01T10:18:26.382Z,11.10
2022-08-01T10:20:31.619Z,4.75
2022-08-01T10:22:35.841Z,4.03
2022-08-01T10:24:41.246Z,4.13
2022-08-01T10:26:44.281Z,6.47
2022-08-01T10:28:49.205Z,3.05
2022-08-01T10:30:53.223Z,3.60
2022-08-01T10:32:56.623Z,5.20
2022-08-01T10:34:59.728Z,2.78
2022-08-01T10:37:09.051Z,2.80
2022-08-01T10:39:14.560Z,3.55
2022-08-01T10:41:22.096Z,2.20
2022-08-01T10:43:23.689Z,6.35
2022-08-01T10:45:27.626Z,4.35
2022-08-01T10:47:50.952Z,3.13
2022-08-01T10:49:58.847Z,2.90
2022-08-01T10:52:01.834Z,5.23
2022-08-01T10:54:06.895Z,5.22
2022-08-01T10:56:14.976Z,4.03
2022-08-01T10:58:42.774Z,4.53
2022-08-01T11:00:45.647Z,5.47
2022-08-01T11:03:02.017Z,4.45
2022-08-01T11:05:06.334Z,6.63
2022-08-01T11:07:11.919Z,9.95
2022-08-01T11:09:16.457Z,7.13
2022-08-01T11:11:18.324Z,6.85
2022-08-01T11:13:59.008Z,6.80
2022-08-01T11:16:31.045Z,5.30
2022-08-01T11:18:37.433Z,7.18
2022-08-01T11:21:59.750Z,4.35
2022-08-01T11:23:20.346Z,7.65
2022-08-01T11:26:05.055Z,5.70
2022-08-01T11:27:46.439Z,5.35
2022-08-01T11:30:14.879Z,6.32
2022-08-01T11:32:28.316Z,4.38
2022-08-01T11:34:54.348Z,6.57
2022-08-01T11:37:30.396Z,6.47
2022-08-01T11:39:36.832Z,6.20
2022-08-01T11:41:40.703Z,8.88
2022-08-01T11:44:01.357Z,8.60
2022-08-01T11:46:04.077Z,3.90
2022-08-01T11:48:19.086Z,5.18
2022-08-01T11:50:46.828Z,5.38
2022-08-01T11:52:48.611Z,4.57
2022-08-01T11:54:51.024Z,7.63
2022-08-01T11:56:56.226Z,5.93
2022-08-01T11:59:00.711Z,4.15
2022-08-01T12:01:02.747Z,6.50
2022-08-01T12:03:07.572Z,4.35
2022-08-01T12:05:15.556Z,4.95
2022-08-01T12:07:18.453Z,5.15
2022-08-01T12:09:22.523Z,5.82
2022-08-01T12:11:24.106Z,6.00
2022-08-01T12:13:42.817Z,7.05
2022-08-01T12:15:45.643Z,4.43
2022-08-01T12:18:07.930Z,4.13
2022-08-01T12:20:13.221Z,7.38
2022-08-01T12:22:15.606Z,3.90
2022-08-01T12:24:23.057Z,2.72
2022-08-01T12:26:31.793Z,3.30
2022-08-01T12:28:40.775Z,3.80
2022-08-01T12:30:42.611Z,4.55
2022-08-01T12:32:48.476Z,3.97
2022-08-01T12:34:50.582Z,4.07
2022-08-01T12:36:52.168Z,7.63
2022-08-01T12:38:54.550Z,4.60
2022-08-01T12:40:56.789Z,5.95
2022-08-01T12:43:06.728Z,4.40
2022-08-01T12:45:12.229Z,5.45
2022-08-01T12:47:14.520Z,5.63
2022-08-01T12:49:16.504Z,3.75
2022-08-01T12:51:18.242Z,9.52
2022-08-01T12:53:21.823Z,8.02
2022-08-01T12:55:34.593Z,4.72
2022-08-01T12:57:38.723Z,5.28
2022-08-01T12:59:41.372Z,8.52
2022-08-01T13:01:43.163Z,7.32
2022-08-01T13:04:01.950Z,5.53
2022-08-01T13:06:11.911Z,6.20
2022-08-01T13:08:24.751Z,5.68
2022-08-01T13:10:31.562Z,4.18
2022-08-01T13:12:33.399Z,6.13
2022-08-01T13:14:34.999Z,7.47
2022-08-01T13:16:56.775Z,4.45
2022-08-01T13:18:59.480Z,7.75
2022-08-01T13:21:21.313Z,6.43
2022-08-01T13:24:02.869Z,7.00
2022-08-01T13:25:52.577Z,5.47
2022-08-01T13:30:20.199Z,6.85
2022-08-01T13:32:28.975Z,3.88
2022-08-01T13:34:35.267Z,5.97
2022-08-01T13:36:37.142Z,7.10
2022-08-01T13:38:58.488Z,7.78
2022-08-01T13:41:00.158Z,4.50
2022-08-01T13:43:04.914Z,5.68
2022-08-01T13:45:14.696Z,9.13
2022-08-01T13:47:16.949Z,5.20
2022-08-01T13:49:18.947Z,6.60
2022-08-01T13:51:22.504Z,9.32
2022-08-01T13:53:24.334Z,6.30
2022-08-01T13:55:26.678Z,7.80
2022-08-01T13:57:36.380Z,7.63
2022-08-01T13:59:38.928Z,6.03
2022-08-01T14:01:40.581Z,4.68
2022-08-01T14:03:42.239Z,5.47
2022-08-01T14:05:46.629Z,9.68
2022-08-01T14:07:48.679Z,5.70
2022-08-01T14:10:04.456Z,5.43
2022-08-01T14:12:12.022Z,8.82
2022-08-01T14:14:14.518Z,9.80
2022-08-01T14:16:16.204Z,8.43
2022-08-01T14:18:19.198Z,6.55
2022-08-01T14:20:20.986Z,6.32
2022-08-01T14:22:22.566Z,5.30
2022-08-01T14:24:25.441Z,5.72
2022-08-01T14:26:29.426Z,4.32
2022-08-01T14:28:31.315Z,5.07
2022-08-01T14:30:33.730Z,3.97
2022-08-01T14:32:35.849Z,5.60
2022-08-01T14:34:37.458Z,7.97
2022-08-01T14:36:39.137Z,6.43
2022-08-01T14:38:40.801Z,7.15
2022-08-01T14:40:43.309Z,5.53
2022-08-01T14:42:45.577Z,11.68
2022-08-01T14:44:50.062Z,3.95
2022-08-01T14:46:57.955Z,5.28
2022-08-01T14:49:00.422Z,5.75
2022-08-01T14:51:03.919Z,6.88
2022-08-01T14:53:05.861Z,5.70
2022-08-01T14:55:09.770Z,3.60
2022-08-01T14:57:11.499Z,4.70
2022-08-01T14:59:21.502Z,5.82
2022-08-01T15:01:23.753Z,9.52
2022-08-01T15:03:25.456Z,9.57
2022-08-01T15:05:27.198Z,6.88
2022-08-01T15:07:28.778Z,7.95
2022-08-01T15:09:30.347Z,4.75
2022-08-01T15:11:34.334Z,4.03
2022-08-01T15:13:41.911Z,6.90
2022-08-01T15:15:44.102Z,9.00
2022-08-01T15:17:46.209Z,7.93
2022-08-01T15:19:48.970Z,5.20
2022-08-01T15:21:50.639Z,11.88
2022-08-01T15:23:52.396Z,9.80
2022-08-01T15:25:53.962Z,9.38
2022-08-01T15:27:55.639Z,7.65
2022-08-01T15:29:57.637Z,8.38
2022-08-01T15:31:59.548Z,5.60
2022-08-01T15:34:01.837Z,3.95
2022-08-01T15:36:05.533Z,6.50
2022-08-01T15:38:07.249Z,9.70
2022-08-01T15:40:09.618Z,6.90
2022-08-01T15:42:13.448Z,9.23
2022-08-01T15:44:22.680Z,8.52
2022-08-01T15:46:24.723Z,9.32
2022-08-01T15:48:26.335Z,9.43
2022-08-01T15:50:28.021Z,12.20
2022-08-01T15:52:31.646Z,17.05
2022-08-01T15:54:34.648Z,15.88
2022-08-01T15:56:36.966Z,10.52
2022-08-01T15:58:38.535Z,9.82
2022-08-01T16:00:40.421Z,9.00
2022-08-01T16:02:42.014Z,8.38
2022-08-01T16:04:43.586Z,11.55
2022-08-01T16:06:45.267Z,19.20
2022-08-01T16:08:46.847Z,12.35
2022-08-01T16:10:48.729Z,11.05
2022-08-01T16:12:50.304Z,9.75
2022-08-01T16:14:51.923Z,7.88
2022-08-01T16:16:54.320Z,11.63
2022-08-01T16:18:55.877Z,19.25
2022-08-01T16:21:00.803Z,38.20
2022-08-01T16:23:02.719Z,33.72
2022-08-01T16:25:05.145Z,18.33
2022-08-01T16:27:06.909Z,10.52
2022-08-01T16:29:08.734Z,13.05
2022-08-01T16:31:15.660Z,13.55
2022-08-01T16:33:45.148Z,7.90
2022-08-01T16:35:44.870Z,8.63
2022-08-01T16:37:48.419Z,12.98
2022-08-01T16:39:50.084Z,8.73
2022-08-01T16:41:55.361Z,17.95
2022-08-01T16:43:57.064Z,12.65
2022-08-01T16:45:58.777Z,8.85
2022-08-01T16:48:00.383Z,9.30
2022-08-01T16:50:03.833Z,10.65
2022-08-01T16:52:05.705Z,9.32
2022-08-01T16:54:25.041Z,10.50
2022-08-01T16:56:28.009Z,10.18
2022-08-01T16:58:29.557Z,10.05
2022-08-01T17:00:31.226Z,11.75
2022-08-01T17:02:32.907Z,9.27
2022-08-01T17:04:34.513Z,11.07
2022-08-01T17:06:36.099Z,9.43
2022-08-01T17:08:37.688Z,9.77
2022-08-01T17:10:48.667Z,9.88
2022-08-01T17:12:50.256Z,12.88
2022-08-01T17:14:51.863Z,12.68
2022-08-01T17:16:53.418Z,11.70
2022-08-01T17:18:54.965Z,8.98
2022-08-01T17:20:56.527Z,10.85
2022-08-01T17:22:58.167Z,11.05
2022-08-01T17:24:59.751Z,10.30
2022-08-01T17:27:01.330Z,9.93
2022-08-01T17:29:02.986Z,9.82
2022-08-01T17:31:10.431Z,11.35
2022-08-01T17:33:12.307Z,11.90
2022-08-01T17:35:14.507Z,12.48
2022-08-01T17:37:16.130Z,13.02
2022-08-01T17:39:21.823Z,12.18
2022-08-01T17:41:25.144Z,11.98
2022-08-01T17:43:26.726Z,10.82
2022-08-01T17:45:29.501Z,11.90
2022-08-01T17:47:49.766Z,12.32
2022-08-01T17:49:55.086Z,15.68
2022-08-01T17:51:57.025Z,12.98
2022-08-01T17:53:58.960Z,13.27
2022-08-01T17:56:02.535Z,14.18
2022-08-01T17:58:05.323Z,17.15
2022-08-01T18:00:07.845Z,16.85
2022-08-01T18:02:09.477Z,16.52
2022-08-01T18:04:12.440Z,25.45
2022-08-01T18:06:19.094Z,23.23
2022-08-01T18:08:21.096Z,28.25
2022-08-01T18:10:25.076Z,20.30
2022-08-01T18:12:27.527Z,17.63
2022-08-01T18:14:39.805Z,16.50
2022-08-01T18:16:42.554Z,20.27
2022-08-01T18:18:44.207Z,14.70
2022-08-01T18:20:46.927Z,16.92
2022-08-01T18:22:48.595Z,17.10
2022-08-01T18:24:50.565Z,15.73
2022-08-01T18:26:53.657Z,16.52
2022-08-01T18:28:55.275Z,15.70
2022-08-01T18:30:59.680Z,14.35
2022-08-01T18:33:01.305Z,15.93
2022-08-01T18:35:07.796Z,16.00
2022-08-01T18:37:14.908Z,15.48
2022-08-01T18:39:16.786Z,43.47
2022-08-01T18:41:18.370Z,30.67
2022-08-01T18:43:19.937Z,18.60
2022-08-01T18:45:21.631Z,20.30
2022-08-01T18:47:23.194Z,18.23
2022-08-01T18:49:24.798Z,21.75
2022-08-01T18:51:27.714Z,45.00
2022-08-01T18:53:29.577Z,68.18
2022-08-01T18:55:31.207Z,74.97
2022-08-01T18:57:32.853Z,71.18
2022-08-01T18:59:34.431Z,83.72
2022-08-01T19:01:40.960Z,59.67
2022-08-01T19:03:42.968Z,59.90
2022-08-01T19:05:44.576Z,53.03
2022-08-01T19:08:05.892Z,32.88
2022-08-01T19:10:08.102Z,23.75
2022-08-01T19:12:09.729Z,21.08
2022-08-01T19:14:11.378Z,19.88
2022-08-01T19:16:13.286Z,20.48
2022-08-01T19:18:15.811Z,30.40
2022-08-01T19:20:17.852Z,41.10
2022-08-01T19:22:19.406Z,37.28
2022-08-01T19:24:23.152Z,41.88
2022-08-01T19:26:27.166Z,33.55
2022-08-01T19:28:29.027Z,23.13
2022-08-01T19:30:33.345Z,18.05
2022-08-01T19:32:36.302Z,19.92
2022-08-01T19:34:52.001Z,16.05
2022-08-01T19:36:55.937Z,16.95
2022-08-01T19:38:57.572Z,17.67
2022-08-01T19:40:59.525Z,18.40
2022-08-01T19:43:01.969Z,19.02
2022-08-01T19:45:05.480Z,18.13
2022-08-01T19:47:07.265Z,18.88
2022-08-01T19:49:12.277Z,19.00
2022-08-01T19:51:16.499Z,18.27
2022-08-01T19:53:19.351Z,16.75
2022-08-01T19:55:21.397Z,16.85
2022-08-01T19:57:26.009Z,17.75
2022-08-01T19:59:31.469Z,18.30
2022-08-01T20:01:33.027Z,17.88
2022-08-01T20:03:36.009Z,19.80
2022-08-01T20:05:39.036Z,21.60
2022-08-01T20:07:40.938Z,19.48
2022-08-01T20:09:46.227Z,20.75
2022-08-01T20:11:50.962Z,21.65
2022-08-01T20:13:52.568Z,22.58
2022-08-01T20:15:54.685Z,21.33
2022-08-01T20:17:59.703Z,20.00
2022-08-01T20:20:01.309Z,18.85
2022-08-01T20:22:06.140Z,18.50
2022-08-01T20:24:11.227Z,22.90
2022-08-01T20:26:15.870Z,22.15
2022-08-01T20:28:23.996Z,23.77
2022-08-01T20:30:26.325Z,18.33
2022-08-01T20:32:31.160Z,18.02
2022-08-01T20:34:37.250Z,17.38
2022-08-01T20:36:39.018Z,17.95
2022-08-01T20:38:41.712Z,15.95
2022-08-01T20:40:43.908Z,17.58
2022-08-01T20:42:45.649Z,16.27
2022-08-01T20:44:49.567Z,17.75
2022-08-01T20:46:53.059Z,26.95
2022-08-01T20:48:56.053Z,22.85
2022-08-01T20:51:16.666Z,19.95
2022-08-01T20:53:18.915Z,17.40
2022-08-01T20:55:21.996Z,16.00
2022-08-01T20:57:25.478Z,15.98
2022-08-01T20:59:55.421Z,15.40
2022-08-01T21:02:21.234Z,14.63
2022-08-01T21:04:41.527Z,15.88
2022-08-01T21:06:46.798Z,20.80
2022-08-01T21:08:50.072Z,17.25
2022-08-01T21:10:58.608Z,16.98
2022-08-01T21:13:00.103Z,15.75
2022-08-01T21:15:01.905Z,15.57
2022-08-01T21:17:07.718Z,15.40
2022-08-01T21:19:21.251Z,14.07
2022-08-01T21:21:27.445Z,14.30
2022-08-01T21:23:36.279Z,14.73
2022-08-01T21:25:38.198Z,16.58
2022-08-01T21:27:40.510Z,19.30
2022-08-01T21:29:44.642Z,17.40
2022-08-01T21:31:46.374Z,18.25
2022-08-01T21:34:02.323Z,17.25
2022-08-01T21:36:06.635Z,21.33
2022-08-01T21:38:08.450Z,17.83
2022-08-01T21:40:10.655Z,20.08
2022-08-01T21:42:18.764Z,18.77
2022-08-01T21:44:28.721Z,22.63
2022-08-01T21:46:30.907Z,20.52
2022-08-01T21:48:32.900Z,19.67
2022-08-01T21:50:42.958Z,22.25
2022-08-01T21:52:52.529Z,19.15
2022-08-01T21:55:02.370Z,16.98
2022-08-01T21:57:12.740Z,16.92
2022-08-01T21:59:40.849Z,17.52
2022-08-01T22:01:53.102Z,14.48
2022-08-01T22:03:56.405Z,16.40
2022-08-01T22:05:58.727Z,16.45
2022-08-01T22:08:03.582Z,17.55
2022-08-01T22:10:06.252Z,17.08
2022-08-01T22:12:08.157Z,15.10
2022-08-01T22:14:13.798Z,18.27
2022-08-01T22:16:15.481Z,20.52
2022-08-01T22:18:17.288Z,16.02
2022-08-01T22:20:22.988Z,16.20
2022-08-01T22:22:50.803Z,17.48
2022-08-01T22:24:49.850Z,16.58
2022-08-01T22:26:53.772Z,17.30
2022-08-01T22:28:55.517Z,17.95
2022-08-01T22:30:57.790Z,20.13
2022-08-01T22:33:15.493Z,25.45
2022-08-01T22:35:18.486Z,20.23
2022-08-01T22:37:55.943Z,19.40
2022-08-01T22:39:41.842Z,19.60
2022-08-01T22:42:01.717Z,17.85
2022-08-01T22:44:08.893Z,19.08
2022-08-01T22:46:16.552Z,16.83
2022-08-01T22:48:34.777Z,22.13
2022-08-01T22:50:39.032Z,16.73
2022-08-01T22:52:48.633Z,16.98
2022-08-01T22:55:02.068Z,16.27
2022-08-01T22:57:07.587Z,17.08
2022-08-01T22:59:14.811Z,16.33
2022-08-01T23:01:21.026Z,17.75
2022-08-01T23:03:28.723Z,18.35
2022-08-01T23:05:30.625Z,20.70
2022-08-01T23:07:34.522Z,16.45
2022-08-01T23:09:39.245Z,18.27
2022-08-01T23:11:56.351Z,17.45
2022-08-01T23:14:00.444Z,22.60
2022-08-01T23:16:02.582Z,21.20
2022-08-01T23:18:07.285Z,22.90
2022-08-01T23:20:09.571Z,22.42
2022-08-01T23:22:12.046Z,19.17
2022-08-01T23:24:14.889Z,19.83
2022-08-01T23:26:16.683Z,21.77
2022-08-01T23:28:18.739Z,18.88
2022-08-01T23:30:22.281Z,29.67
2022-08-01T23:32:25.002Z,23.42
2022-08-01T23:34:26.558Z,20.08
2022-08-01T23:36:28.135Z,20.83
2022-08-01T23:38:29.765Z,22.63
2022-08-01T23:40:32.595Z,19.23
2022-08-01T23:42:34.304Z,25.50
2022-08-01T23:44:35.986Z,25.25
2022-08-01T23:46:37.831Z,22.70
2022-08-01T23:48:39.401Z,20.48
2022-08-01T23:50:41.042Z,20.25
2022-08-01T23:52:48.467Z,23.73
2022-08-01T23:54:52.090Z,23.05
2022-08-01T23:56:54.252Z,22.77
2022-08-01T23:58:55.797Z,21.88
